Time;durP1;ratioP1;P1;durP2;ratioP2;P2;SDS_P1;SDS_P2;PMS_P1;PMS_P2;Temp;Humidity;BMP_temperature;BMP_pressure;BME280_temperature;BME280_humidity;BME280_pressure;Samples;Min_cycle;Max_cycle;Signal;HPM_P1;HPM_P2
2022/11/03 00:00:10;;;;;;;8.52;2.20;;;;;;;;;;524197;28;1231;-62
2022/11/03 00:00:25;;;;;;;9.97;2.20;;;;;;;;;;523655;28;1566;-61
2022/11/03 00:00:40;;;;;;;9.43;2.10;;;;;;;;;;523853;28;1203;-61
2022/11/03 00:00:56;;;;;;;9.40;2.13;;;;;;;;;;523967;28;1066;-61
2022/11/03 00:01:11;;;;;;;11.30;2.20;;;;;;;;;;524556;28;1125;-61
2022/11/03 00:01:27;;;;;;;10.77;2.20;;;;;;;;;;523940;28;1212;-61
2022/11/03 00:01:47;;;;;;;9.70;2.30;;;;;;;;;;522787;28;1229;-62
2022/11/03 00:02:02;;;;;;;9.10;2.45;;;;;;;;;;521381;28;1101;-62
2022/11/03 00:02:18;;;;;;;9.43;2.43;;;;;;;;;;522791;28;1350;-61
2022/11/03 00:02:33;;;;;;;9.37;2.40;;;;;;;;;;521850;28;1290;-61
2022/11/03 00:02:48;;;;;;;10.80;2.28;;;;;;;;;;522186;28;1658;-61
2022/11/03 00:03:03;;;;;;;11.83;2.27;;;;;;;;;;519786;28;1166;-61
2022/11/03 00:03:19;;;;;;;10.27;2.40;;;;;;;;;;520415;28;1207;-61
2022/11/03 00:03:34;;;;;;;9.07;2.60;;;;;;;;;;519073;28;1486;-61
2022/11/03 00:03:49;;;;;;;10.37;2.27;;;;;;;;;;521227;28;1142;-61
2022/11/03 00:04:06;;;;;;;11.87;2.10;;;;;;;;;;521441;28;1141;-60
2022/11/03 00:04:22;;;;;;;10.27;2.17;;;;;;;;;;522029;28;1110;-61
2022/11/03 00:04:37;;;;;;;8.13;2.10;;;;;;;;;;523754;28;1219;-61
2022/11/03 00:04:52;;;;;;;8.40;2.30;;;;;;;;;;526167;27;1220;-61
2022/11/03 00:06:17;;;;;;;11.48;2.35;;;;;;;;;;517670;28;1169;-61
2022/11/03 00:06:33;;;;;;;9.50;2.47;;;;;;;;;;517725;28;1118;-61
2022/11/03 00:06:51;;;;;;;8.60;2.13;;;;;;;;;;519389;28;1221;-61
2022/11/03 00:07:06;;;;;;;10.05;2.08;;;;;;;;;;523055;28;1389;-60
2022/11/03 00:07:21;;;;;;;9.57;2.20;;;;;;;;;;522270;28;1181;-61
2022/11/03 00:07:37;;;;;;;9.87;2.20;;;;;;;;;;521006;28;1266;-61
2022/11/03 00:07:52;;;;;;;11.32;2.20;;;;;;;;;;522824;28;1020;-62
2022/11/03 00:08:07;;;;;;;11.47;2.30;;;;;;;;;;522065;28;1259;-62
2022/11/03 00:08:22;;;;;;;9.53;2.27;;;;;;;;;;521532;28;1190;-61
2022/11/03 00:08:40;;;;;;;8.87;2.20;;;;;;;;;;523397;28;1313;-61
2022/11/03 00:08:59;;;;;;;9.05;2.13;;;;;;;;;;524887;28;956;-62
2022/11/03 00:09:16;;;;;;;8.57;2.08;;;;;;;;;;524247;28;1196;-61
2022/11/03 00:09:31;;;;;;;8.20;2.15;;;;;;;;;;525453;28;1085;-61
2022/11/03 00:09:47;;;;;;;10.63;2.35;;;;;;;;;;526801;27;1051;-62
2022/11/03 00:10:02;;;;;;;10.50;2.30;;;;;;;;;;525482;27;1036;-61
2022/11/03 00:10:18;;;;;;;8.48;2.17;;;;;;;;;;529259;27;1029;-61
2022/11/03 00:10:33;;;;;;;8.50;2.10;;;;;;;;;;526585;27;1559;-61
2022/11/03 00:10:48;;;;;;;9.30;2.23;;;;;;;;;;527846;27;1211;-61
2022/11/03 00:11:12;;;;;;;10.80;2.30;;;;;;;;;;525042;28;1187;-61
2022/11/03 00:11:27;;;;;;;9.80;2.20;;;;;;;;;;525297;28;1129;-61
2022/11/03 00:11:44;;;;;;;8.63;2.07;;;;;;;;;;524335;28;1245;-61
2022/11/03 00:12:00;;;;;;;10.55;2.20;;;;;;;;;;525160;28;1260;-61
2022/11/03 00:12:15;;;;;;;9.68;2.33;;;;;;;;;;525926;27;981;-62
2022/11/03 00:12:31;;;;;;;8.70;2.22;;;;;;;;;;527708;27;1152;-61
2022/11/03 00:12:46;;;;;;;8.80;2.23;;;;;;;;;;523711;28;1203;-61
2022/11/03 00:13:01;;;;;;;10.20;2.10;;;;;;;;;;524721;28;1689;-62
2022/11/03 00:13:16;;;;;;;11.60;2.20;;;;;;;;;;525945;28;1128;-62
2022/11/03 00:13:32;;;;;;;11.68;2.47;;;;;;;;;;526270;27;1330;-61
2022/11/03 00:13:47;;;;;;;9.97;2.30;;;;;;;;;;525536;27;1163;-62
2022/11/03 00:14:03;;;;;;;9.90;2.20;;;;;;;;;;520969;28;1692;-61
2022/11/03 00:14:19;;;;;;;9.93;2.30;;;;;;;;;;525484;28;1619;-62
2022/11/03 00:14:34;;;;;;;9.67;2.37;;;;;;;;;;525649;27;1038;-61
2022/11/03 00:14:49;;;;;;;10.32;2.50;;;;;;;;;;525521;28;1021;-62
2022/11/03 00:15:05;;;;;;;10.47;2.43;;;;;;;;;;521821;28;1211;-61
2022/11/03 00:15:20;;;;;;;10.23;2.33;;;;;;;;;;524930;27;1190;-62
2022/11/03 00:15:36;;;;;;;10.93;2.33;;;;;;;;;;524532;28;1193;-61
2022/11/03 00:15:51;;;;;;;11.73;2.40;;;;;;;;;;522359;28;1784;-61
2022/11/03 00:16:07;;;;;;;10.90;2.30;;;;;;;;;;522240;28;990;-61
2022/11/03 00:16:23;;;;;;;10.32;2.20;;;;;;;;;;522832;28;1149;-61
2022/11/03 00:16:38;;;;;;;10.20;2.20;;;;;;;;;;524846;28;1120;-61
2022/11/03 00:16:54;;;;;;;9.98;2.28;;;;;;;;;;522248;28;1286;-61
2022/11/03 00:17:09;;;;;;;9.47;2.23;;;;;;;;;;521413;28;1169;-61
2022/11/03 00:17:24;;;;;;;9.40;2.13;;;;;;;;;;523865;28;1919;-61
2022/11/03 00:17:39;;;;;;;10.18;2.20;;;;;;;;;;524744;28;1374;-61
2022/11/03 00:17:54;;;;;;;9.93;2.27;;;;;;;;;;521382;28;1137;-61
2022/11/03 00:18:10;;;;;;;8.47;2.00;;;;;;;;;;519463;28;1281;-61
2022/11/03 00:18:25;;;;;;;8.30;2.00;;;;;;;;;;518669;28;1507;-61
2022/11/03 00:18:40;;;;;;;9.55;2.25;;;;;;;;;;519525;28;1384;-61
2022/11/03 00:18:55;;;;;;;9.83;2.23;;;;;;;;;;521209;28;1021;-61
2022/11/03 00:19:13;;;;;;;10.30;2.17;;;;;;;;;;520022;28;1355;-61
2022/11/03 00:19:28;;;;;;;10.27;2.30;;;;;;;;;;523254;28;1049;-61
2022/11/03 00:19:44;;;;;;;9.80;2.33;;;;;;;;;;520686;28;1248;-61
2022/11/03 00:19:59;;;;;;;10.63;2.17;;;;;;;;;;517367;28;1038;-62
2022/11/03 00:20:14;;;;;;;11.38;2.20;;;;;;;;;;519445;28;1070;-61
2022/11/03 00:20:30;;;;;;;11.83;2.30;;;;;;;;;;520252;28;1066;-61
2022/11/03 00:20:54;;;;;;;10.33;2.20;;;;;;;;;;518467;28;1553;-61
2022/11/03 00:21:12;;;;;;;10.93;2.60;;;;;;;;;;520496;28;1217;-61
2022/11/03 00:21:27;;;;;;;9.70;2.20;;;;;;;;;;519729;28;1264;-62
2022/11/03 00:21:44;;;;;;;8.93;2.10;;;;;;;;;;520002;28;1094;-61
2022/11/03 00:21:59;;;;;;;10.77;2.33;;;;;;;;;;522315;28;1090;-61
2022/11/03 00:22:14;;;;;;;10.13;2.33;;;;;;;;;;521165;28;1185;-61
2022/11/03 00:22:32;;;;;;;7.50;2.10;;;;;;;;;;521120;28;1236;-61
2022/11/03 00:22:47;;;;;;;9.23;2.25;;;;;;;;;;522711;28;1216;-60
2022/11/03 00:23:02;;;;;;;9.88;2.53;;;;;;;;;;524102;28;1160;-61
2022/11/03 00:23:17;;;;;;;9.70;2.50;;;;;;;;;;522615;28;1314;-61
2022/11/03 00:23:36;;;;;;;11.03;2.53;;;;;;;;;;522815;28;1141;-62
2022/11/03 00:23:51;;;;;;;10.85;2.38;;;;;;;;;;523985;27;1197;-61
2022/11/03 00:24:06;;;;;;;10.30;2.03;;;;;;;;;;527618;27;1063;-61
2022/11/03 00:24:22;;;;;;;8.13;1.80;;;;;;;;;;524172;28;1226;-61
2022/11/03 00:24:37;;;;;;;6.60;1.95;;;;;;;;;;521865;28;1137;-61
2022/11/03 00:24:52;;;;;;;8.77;2.10;;;;;;;;;;521981;28;1064;-61
2022/11/03 00:25:08;;;;;;;10.63;2.23;;;;;;;;;;521965;28;1229;-61
2022/11/03 00:25:23;;;;;;;8.63;2.10;;;;;;;;;;524379;28;1042;-61
2022/11/03 00:25:38;;;;;;;7.87;2.10;;;;;;;;;;525095;28;1026;-61
2022/11/03 00:25:54;;;;;;;7.87;2.10;;;;;;;;;;521321;28;1022;-61
2022/11/03 00:26:29;;;;;;;9.45;2.17;;;;;;;;;;523147;28;1531;-61
2022/11/03 00:26:44;;;;;;;14.15;2.58;;;;;;;;;;521986;28;1511;-61
2022/11/03 00:26:59;;;;;;;13.80;2.63;;;;;;;;;;523784;28;1436;-61
2022/11/03 00:27:15;;;;;;;12.57;2.53;;;;;;;;;;525779;28;1104;-61
2022/11/03 00:27:30;;;;;;;11.10;2.33;;;;;;;;;;524766;28;1252;-61
2022/11/03 00:27:45;;;;;;;8.93;2.23;;;;;;;;;;524027;28;1183;-61
2022/11/03 00:28:00;;;;;;;8.83;2.30;;;;;;;;;;525848;28;1137;-61
2022/11/03 00:28:16;;;;;;;7.95;2.20;;;;;;;;;;523635;28;1216;-61
2022/11/03 00:28:32;;;;;;;9.43;2.20;;;;;;;;;;521829;28;1487;-61
2022/11/03 00:28:50;;;;;;;10.15;2.30;;;;;;;;;;524858;28;1161;-61
2022/11/03 00:29:08;;;;;;;10.88;2.40;;;;;;;;;;523717;28;1081;-61
2022/11/03 00:29:23;;;;;;;10.75;2.50;;;;;;;;;;525826;28;1066;-61
2022/11/03 00:29:39;;;;;;;8.60;2.25;;;;;;;;;;525347;27;1242;-61
2022/11/03 00:29:54;;;;;;;9.27;2.27;;;;;;;;;;526490;27;934;-61
2022/11/03 00:30:10;;;;;;;12.20;2.50;;;;;;;;;;525890;27;1091;-61
2022/11/03 00:30:25;;;;;;;11.48;2.38;;;;;;;;;;524931;28;1156;-61
2022/11/03 00:30:40;;;;;;;9.87;2.20;;;;;;;;;;524783;27;998;-64
2022/11/03 00:30:55;;;;;;;10.80;2.25;;;;;;;;;;523079;28;1236;-62
2022/11/03 00:31:12;;;;;;;10.80;2.37;;;;;;;;;;521143;28;1175;-61
2022/11/03 00:31:33;;;;;;;10.82;2.20;;;;;;;;;;522652;28;1015;-62
2022/11/03 00:31:48;;;;;;;12.35;2.30;;;;;;;;;;522456;28;1162;-61
2022/11/03 00:32:03;;;;;;;11.13;2.40;;;;;;;;;;522650;28;1187;-62
2022/11/03 00:32:19;;;;;;;9.13;2.25;;;;;;;;;;520678;28;1409;-61
2022/11/03 00:32:34;;;;;;;9.60;2.30;;;;;;;;;;518750;28;1169;-61
2022/11/03 00:32:49;;;;;;;10.17;2.40;;;;;;;;;;520417;28;1043;-62
2022/11/03 00:33:04;;;;;;;9.60;2.40;;;;;;;;;;520295;28;1263;-61
2022/11/03 00:33:20;;;;;;;9.57;2.23;;;;;;;;;;521336;28;1138;-62
2022/11/03 00:33:36;;;;;;;9.53;2.10;;;;;;;;;;518317;28;1366;-61
2022/11/03 00:33:52;;;;;;;9.25;2.10;;;;;;;;;;518353;28;1275;-61
2022/11/03 00:34:08;;;;;;;8.23;2.20;;;;;;;;;;517992;28;1662;-61
2022/11/03 00:34:23;;;;;;;10.02;2.20;;;;;;;;;;520013;28;1134;-61
2022/11/03 00:34:39;;;;;;;11.00;2.10;;;;;;;;;;521903;28;1180;-61
2022/11/03 00:34:54;;;;;;;8.77;2.33;;;;;;;;;;520692;28;1548;-61
2022/11/03 00:35:10;;;;;;;9.47;2.40;;;;;;;;;;518138;28;1400;-61
2022/11/03 00:35:25;;;;;;;11.57;2.40;;;;;;;;;;519776;28;1138;-62
2022/11/03 00:35:40;;;;;;;10.00;2.13;;;;;;;;;;522330;28;1233;-61
2022/11/03 00:35:57;;;;;;;10.98;2.13;;;;;;;;;;522044;28;1042;-61
2022/11/03 00:36:15;;;;;;;12.27;2.40;;;;;;;;;;521511;28;1081;-61
2022/11/03 00:36:32;;;;;;;9.20;2.30;;;;;;;;;;519185;28;1367;-61
2022/11/03 00:36:48;;;;;;;9.30;2.08;;;;;;;;;;519913;28;1139;-61
2022/11/03 00:37:03;;;;;;;9.87;1.90;;;;;;;;;;519539;28;1866;-60
2022/11/03 00:37:18;;;;;;;9.80;2.27;;;;;;;;;;521531;28;985;-61
2022/11/03 00:37:33;;;;;;;9.05;2.40;;;;;;;;;;518671;28;1976;-61
2022/11/03 00:37:48;;;;;;;8.23;2.03;;;;;;;;;;518056;28;1507;-61
2022/11/03 00:38:04;;;;;;;8.00;1.90;;;;;;;;;;518564;28;1367;-61
2022/11/03 00:38:19;;;;;;;7.87;2.33;;;;;;;;;;516516;28;1154;-61
2022/11/03 00:38:36;;;;;;;9.77;2.42;;;;;;;;;;519044;28;1074;-61
2022/11/03 00:38:52;;;;;;;10.82;2.20;;;;;;;;;;521111;28;1134;-61
2022/11/03 00:39:07;;;;;;;9.97;2.40;;;;;;;;;;521248;28;1197;-61
2022/11/03 00:39:23;;;;;;;9.32;2.47;;;;;;;;;;520327;28;1478;-62
2022/11/03 00:39:38;;;;;;;9.82;2.22;;;;;;;;;;520084;28;1138;-61
2022/11/03 00:39:53;;;;;;;11.10;2.30;;;;;;;;;;518266;28;1213;-61
2022/11/03 00:40:09;;;;;;;13.47;2.50;;;;;;;;;;518719;28;1822;-61
2022/11/03 00:40:25;;;;;;;12.88;2.50;;;;;;;;;;519483;28;1605;-61
2022/11/03 00:40:40;;;;;;;11.93;2.55;;;;;;;;;;518791;28;982;-62
2022/11/03 00:41:02;;;;;;;11.87;2.37;;;;;;;;;;518106;28;1090;-61
2022/11/03 00:41:21;;;;;;;9.05;1.90;;;;;;;;;;520466;28;2207;-61
2022/11/03 00:41:37;;;;;;;9.05;2.28;;;;;;;;;;523358;28;1102;-61
2022/11/03 00:41:53;;;;;;;10.60;2.30;;;;;;;;;;521961;28;1192;-61
2022/11/03 00:42:08;;;;;;;11.50;2.17;;;;;;;;;;523194;28;1043;-61
2022/11/03 00:42:23;;;;;;;11.63;2.17;;;;;;;;;;520279;28;1289;-62
2022/11/03 00:42:38;;;;;;;9.80;2.40;;;;;;;;;;521935;28;1149;-61
2022/11/03 00:42:54;;;;;;;8.63;2.60;;;;;;;;;;521167;28;1141;-61
2022/11/03 00:43:09;;;;;;;9.15;2.45;;;;;;;;;;522303;28;1137;-62
2022/11/03 00:43:27;;;;;;;9.90;2.33;;;;;;;;;;521957;28;1185;-62
2022/11/03 00:43:42;;;;;;;10.35;2.35;;;;;;;;;;520561;28;1755;-61
2022/11/03 00:43:58;;;;;;;9.37;2.30;;;;;;;;;;520870;28;1161;-61
2022/11/03 00:44:13;;;;;;;9.18;2.10;;;;;;;;;;522949;28;1259;-61
2022/11/03 00:44:28;;;;;;;8.70;1.90;;;;;;;;;;520291;28;1439;-61
2022/11/03 00:44:44;;;;;;;8.90;2.05;;;;;;;;;;520749;28;1206;-61
2022/11/03 00:44:59;;;;;;;8.80;2.10;;;;;;;;;;519512;28;1086;-61
2022/11/03 00:45:14;;;;;;;9.83;2.20;;;;;;;;;;520633;28;1166;-61
2022/11/03 00:45:30;;;;;;;11.07;2.28;;;;;;;;;;520111;28;1114;-61
2022/11/03 00:45:45;;;;;;;10.60;2.20;;;;;;;;;;522034;28;991;-62
2022/11/03 00:46:01;;;;;;;9.77;2.30;;;;;;;;;;521621;28;1442;-61
2022/11/03 00:46:18;;;;;;;9.23;2.22;;;;;;;;;;522306;28;1101;-61
2022/11/03 00:46:34;;;;;;;8.35;2.00;;;;;;;;;;521583;28;1275;-62
2022/11/03 00:46:49;;;;;;;8.38;1.95;;;;;;;;;;522592;28;1113;-61
2022/11/03 00:47:04;;;;;;;9.70;2.20;;;;;;;;;;525402;28;1272;-62
2022/11/03 00:47:19;;;;;;;9.80;2.10;;;;;;;;;;524596;28;1333;-61
2022/11/03 00:48:28;;;;;;;8.33;2.10;;;;;;;;;;523780;28;1125;-61
2022/11/03 00:48:28;;;;;;;11.07;2.20;;;;;;;;;;525881;28;1025;-61
2022/11/03 00:48:44;;;;;;;10.15;2.20;;;;;;;;;;521859;28;1393;-62
2022/11/03 00:48:59;;;;;;;11.60;2.10;;;;;;;;;;524470;28;1074;-62
2022/11/03 00:49:15;;;;;;;9.80;1.90;;;;;;;;;;526382;28;1186;-62
2022/11/03 00:49:30;;;;;;;8.03;2.20;;;;;;;;;;524807;28;1223;-61
2022/11/03 00:49:45;;;;;;;8.63;2.37;;;;;;;;;;525081;28;1434;-62
2022/11/03 00:50:00;;;;;;;8.97;2.10;;;;;;;;;;525457;28;1419;-61
2022/11/03 00:50:15;;;;;;;8.70;2.22;;;;;;;;;;525193;28;1291;-61
2022/11/03 00:50:32;;;;;;;10.63;2.43;;;;;;;;;;522922;28;1180;-61
2022/11/03 00:50:47;;;;;;;11.90;2.30;;;;;;;;;;520877;28;1224;-61
2022/11/03 00:51:06;;;;;;;10.50;2.10;;;;;;;;;;523130;28;1372;-61
2022/11/03 00:51:22;;;;;;;8.85;2.00;;;;;;;;;;520697;28;1157;-61
2022/11/03 00:51:38;;;;;;;8.50;1.90;;;;;;;;;;521179;28;1283;-61
2022/11/03 00:51:53;;;;;;;10.80;2.00;;;;;;;;;;525406;28;1156;-61
2022/11/03 00:52:08;;;;;;;11.32;2.22;;;;;;;;;;521828;28;1357;-61
2022/11/03 00:52:23;;;;;;;10.83;2.27;;;;;;;;;;523120;28;1275;-61
2022/11/03 00:52:39;;;;;;;10.03;2.33;;;;;;;;;;523767;28;1084;-61
2022/11/03 00:52:54;;;;;;;9.90;2.20;;;;;;;;;;524617;28;1268;-61
2022/11/03 00:53:09;;;;;;;8.88;2.08;;;;;;;;;;527056;28;1165;-61
2022/11/03 00:53:24;;;;;;;8.73;2.20;;;;;;;;;;525034;28;1136;-61
2022/11/03 00:53:40;;;;;;;10.67;2.33;;;;;;;;;;524712;28;1045;-61
2022/11/03 00:53:57;;;;;;;11.77;2.30;;;;;;;;;;524802;28;1288;-61
2022/11/03 00:54:13;;;;;;;10.32;2.15;;;;;;;;;;523464;28;1188;-61
2022/11/03 00:54:28;;;;;;;10.83;2.00;;;;;;;;;;525510;28;1087;-62
2022/11/03 00:54:43;;;;;;;10.02;1.98;;;;;;;;;;525894;28;1188;-61
2022/11/03 00:54:58;;;;;;;9.00;2.10;;;;;;;;;;524729;28;1203;-61
2022/11/03 00:55:14;;;;;;;11.33;2.27;;;;;;;;;;523663;28;1157;-61
2022/11/03 00:55:29;;;;;;;10.93;2.23;;;;;;;;;;524110;28;1089;-61
2022/11/03 00:55:50;;;;;;;8.90;2.10;;;;;;;;;;523762;28;1110;-61
2022/11/03 00:56:08;;;;;;;9.73;2.28;;;;;;;;;;521846;28;1278;-61
2022/11/03 00:56:24;;;;;;;9.23;2.33;;;;;;;;;;522519;28;1414;-60
2022/11/03 00:56:41;;;;;;;9.85;2.30;;;;;;;;;;523773;28;995;-62
2022/11/03 00:56:56;;;;;;;9.35;2.15;;;;;;;;;;524556;28;1054;-62
2022/11/03 00:57:11;;;;;;;10.32;2.08;;;;;;;;;;525418;28;1037;-62
2022/11/03 00:57:26;;;;;;;12.33;2.20;;;;;;;;;;522288;28;1944;-61
2022/11/03 00:57:42;;;;;;;11.57;2.20;;;;;;;;;;524639;28;1239;-61
2022/11/03 00:57:57;;;;;;;10.52;2.22;;;;;;;;;;525155;28;1270;-61
2022/11/03 00:58:12;;;;;;;10.00;2.20;;;;;;;;;;523552;28;1414;-61
2022/11/03 00:58:28;;;;;;;7.70;2.17;;;;;;;;;;524099;28;1101;-61
2022/11/03 00:58:44;;;;;;;9.15;2.15;;;;;;;;;;522556;28;1193;-61
2022/11/03 00:59:01;;;;;;;12.05;2.10;;;;;;;;;;522005;28;1243;-61
2022/11/03 00:59:16;;;;;;;12.55;2.15;;;;;;;;;;519856;28;1541;-61
2022/11/03 00:59:31;;;;;;;9.63;2.07;;;;;;;;;;521075;28;1129;-62
2022/11/03 00:59:46;;;;;;;8.40;2.10;;;;;;;;;;522030;28;1125;-62
2022/11/03 01:00:02;;;;;;;9.27;2.37;;;;;;;;;;521408;28;1326;-61
2022/11/03 01:00:17;;;;;;;8.27;2.30;;;;;;;;;;523300;28;1326;-61
2022/11/03 01:00:33;;;;;;;8.30;2.03;;;;;;;;;;523123;28;1450;-61
2022/11/03 01:00:48;;;;;;;10.48;2.05;;;;;;;;;;518892;28;1207;-61
2022/11/03 01:01:07;;;;;;;9.80;2.00;;;;;;;;;;519354;28;1205;-61
2022/11/03 01:01:25;;;;;;;9.48;2.10;;;;;;;;;;522097;28;1149;-61
2022/11/03 01:01:43;;;;;;;10.25;2.25;;;;;;;;;;520562;28;1221;-62
2022/11/03 01:01:58;;;;;;;10.23;2.53;;;;;;;;;;520559;28;1205;-61
2022/11/03 01:02:13;;;;;;;11.03;2.43;;;;;;;;;;518925;28;1275;-61
2022/11/03 01:02:28;;;;;;;9.83;2.00;;;;;;;;;;521498;28;1275;-61
2022/11/03 01:02:44;;;;;;;9.68;2.00;;;;;;;;;;521185;28;1451;-62
2022/11/03 01:02:59;;;;;;;10.50;2.20;;;;;;;;;;522309;28;1477;-61
2022/11/03 01:03:14;;;;;;;9.90;2.30;;;;;;;;;;521995;28;1145;-61
2022/11/03 01:03:32;;;;;;;8.20;2.20;;;;;;;;;;519637;28;1288;-61
2022/11/03 01:06:58;;;;;;;8.82;2.20;;;;;;;;;;527020;27;973;-61
2022/11/03 01:07:13;;;;;;;9.85;2.58;;;;;;;;;;528151;27;1129;-62
2022/11/03 01:07:28;;;;;;;9.63;2.40;;;;;;;;;;523492;28;1341;-62
2022/11/03 01:07:44;;;;;;;8.50;1.90;;;;;;;;;;525541;28;1179;-61
2022/11/03 01:07:59;;;;;;;8.27;1.93;;;;;;;;;;523257;28;1461;-61
2022/11/03 01:08:14;;;;;;;9.03;2.27;;;;;;;;;;525290;28;1043;-61
2022/11/03 01:08:34;;;;;;;10.20;2.30;;;;;;;;;;522420;28;1144;-61
2022/11/03 01:08:49;;;;;;;10.02;2.22;;;;;;;;;;519909;28;1373;-61
2022/11/03 01:09:04;;;;;;;7.17;2.03;;;;;;;;;;521166;28;1165;-61
2022/11/03 01:09:22;;;;;;;8.68;2.17;;;;;;;;;;522756;28;1121;-61
2022/11/03 01:09:40;;;;;;;11.40;2.35;;;;;;;;;;523786;28;1183;-61
2022/11/03 01:09:55;;;;;;;9.40;2.22;;;;;;;;;;523875;28;1292;-61
2022/11/03 01:10:10;;;;;;;9.23;2.30;;;;;;;;;;522113;28;1121;-61
2022/11/03 01:10:25;;;;;;;12.73;2.60;;;;;;;;;;523591;28;1231;-61
2022/11/03 01:11:42;;;;;;;9.90;2.33;;;;;;;;;;521887;28;1228;-61
2022/11/03 01:12:09;;;;;;;10.02;2.10;;;;;;;;;;525798;27;1073;-61
2022/11/03 01:12:25;;;;;;;10.88;2.20;;;;;;;;;;526187;28;1271;-61
2022/11/03 01:12:40;;;;;;;8.60;2.27;;;;;;;;;;525203;28;1095;-61
2022/11/03 01:12:55;;;;;;;9.00;2.20;;;;;;;;;;523555;28;1059;-61
2022/11/03 01:13:12;;;;;;;10.90;2.23;;;;;;;;;;523622;28;1148;-61
2022/11/03 01:13:27;;;;;;;12.13;2.28;;;;;;;;;;523824;28;1682;-61
2022/11/03 01:13:42;;;;;;;9.10;2.00;;;;;;;;;;520179;28;2233;-61
2022/11/03 01:13:58;;;;;;;8.33;1.90;;;;;;;;;;523376;28;1065;-61
2022/11/03 01:14:14;;;;;;;9.18;2.00;;;;;;;;;;522444;28;2322;-61
2022/11/03 01:14:35;;;;;;;10.32;2.10;;;;;;;;;;522920;28;2713;-62
2022/11/03 01:14:52;;;;;;;9.60;2.00;;;;;;;;;;525346;28;2032;-61
2022/11/03 01:15:07;;;;;;;8.70;2.10;;;;;;;;;;525304;28;2004;-61
2022/11/03 01:15:22;;;;;;;9.43;2.37;;;;;;;;;;526582;27;1973;-61
2022/11/03 01:15:38;;;;;;;8.73;2.30;;;;;;;;;;528511;27;1009;-61
2022/11/03 01:15:57;;;;;;;8.30;2.10;;;;;;;;;;525573;28;2508;-61
2022/11/03 01:16:12;;;;;;;10.88;2.30;;;;;;;;;;524766;27;2327;-61
2022/11/03 01:16:29;;;;;;;9.23;2.10;;;;;;;;;;525580;27;2118;-61
2022/11/03 01:16:44;;;;;;;7.40;1.90;;;;;;;;;;523469;28;2147;-61
2022/11/03 01:17:00;;;;;;;9.13;2.10;;;;;;;;;;521812;28;1985;-61
2022/11/03 01:17:18;;;;;;;9.90;2.13;;;;;;;;;;522555;28;1134;-61
2022/11/03 01:17:33;;;;;;;8.13;2.10;;;;;;;;;;521249;28;2341;-61
2022/11/03 01:17:48;;;;;;;8.63;2.27;;;;;;;;;;519788;28;2138;-60
2022/11/03 01:18:03;;;;;;;9.97;2.23;;;;;;;;;;522506;28;2008;-61
2022/11/03 01:18:19;;;;;;;10.93;2.40;;;;;;;;;;520168;28;1309;-61
2022/11/03 01:18:34;;;;;;;9.30;2.30;;;;;;;;;;518238;28;1080;-61
2022/11/03 01:18:50;;;;;;;8.47;2.07;;;;;;;;;;520269;28;2348;-61
2022/11/03 01:19:06;;;;;;;9.73;2.15;;;;;;;;;;520675;28;2095;-61
2022/11/03 01:19:21;;;;;;;9.05;2.17;;;;;;;;;;522080;28;2103;-61
2022/11/03 01:19:36;;;;;;;7.97;2.00;;;;;;;;;;522665;28;1102;-62
2022/11/03 01:19:52;;;;;;;8.13;2.10;;;;;;;;;;524012;28;2308;-62
2022/11/03 01:20:08;;;;;;;9.33;2.13;;;;;;;;;;525316;28;2104;-62
2022/11/03 01:20:23;;;;;;;10.30;2.20;;;;;;;;;;527233;27;1985;-61
2022/11/03 01:20:38;;;;;;;8.63;2.00;;;;;;;;;;527004;27;1048;-61
2022/11/03 01:20:55;;;;;;;9.80;2.10;;;;;;;;;;527706;27;2365;-61
2022/11/03 01:21:10;;;;;;;10.90;2.15;;;;;;;;;;529561;27;1905;-61
2022/11/03 01:21:26;;;;;;;10.80;2.00;;;;;;;;;;524112;28;1967;-62
2022/11/03 01:21:42;;;;;;;10.52;2.35;;;;;;;;;;522729;28;1947;-61
2022/11/03 01:21:58;;;;;;;9.18;2.45;;;;;;;;;;523860;28;1097;-62
2022/11/03 01:22:14;;;;;;;8.40;2.40;;;;;;;;;;521840;28;2385;-61
2022/11/03 01:22:29;;;;;;;7.72;2.20;;;;;;;;;;517318;28;1923;-61
2022/11/03 01:22:44;;;;;;;8.20;2.17;;;;;;;;;;518891;28;2404;-61
2022/11/03 01:23:00;;;;;;;9.75;2.20;;;;;;;;;;519724;28;2122;-61
2022/11/03 01:23:15;;;;;;;10.07;2.13;;;;;;;;;;519091;28;1208;-62
2022/11/03 01:23:30;;;;;;;9.03;2.10;;;;;;;;;;518821;28;1715;-61
2022/11/03 01:23:46;;;;;;;8.67;1.90;;;;;;;;;;519544;28;1967;-60
2022/11/03 01:24:04;;;;;;;8.73;2.10;;;;;;;;;;519985;28;2096;-61
2022/11/03 01:24:20;;;;;;;8.68;2.10;;;;;;;;;;520077;28;2186;-61
2022/11/03 01:24:35;;;;;;;10.18;2.20;;;;;;;;;;519216;28;1105;-62
2022/11/03 01:24:50;;;;;;;12.53;2.40;;;;;;;;;;520115;28;2327;-62
2022/11/03 01:25:06;;;;;;;12.10;2.50;;;;;;;;;;521575;28;1880;-61
2022/11/03 01:25:21;;;;;;;10.07;2.23;;;;;;;;;;521199;28;2140;-61
2022/11/03 01:25:37;;;;;;;9.73;2.17;;;;;;;;;;519830;28;1223;-61
2022/11/03 01:25:52;;;;;;;8.03;2.20;;;;;;;;;;516932;28;2026;-61
2022/11/03 01:26:10;;;;;;;8.27;2.20;;;;;;;;;;519096;28;2245;-61
2022/11/03 01:26:25;;;;;;;8.73;2.15;;;;;;;;;;519252;28;2047;-61
2022/11/03 01:26:40;;;;;;;8.93;2.10;;;;;;;;;;520133;28;2004;-61
2022/11/03 01:26:55;;;;;;;11.20;2.47;;;;;;;;;;521912;28;1248;-61
2022/11/03 01:27:14;;;;;;;12.00;2.50;;;;;;;;;;524027;28;2348;-62
2022/11/03 01:27:29;;;;;;;13.98;2.40;;;;;;;;;;524775;28;2031;-62
2022/11/03 01:27:45;;;;;;;12.77;2.50;;;;;;;;;;522416;28;2056;-61
2022/11/03 01:28:01;;;;;;;9.67;2.23;;;;;;;;;;524947;28;2162;-61
2022/11/03 01:28:16;;;;;;;10.38;2.22;;;;;;;;;;523816;28;1039;-61
2022/11/03 01:28:36;;;;;;;8.88;2.20;;;;;;;;;;525671;27;2344;-61
2022/11/03 01:28:51;;;;;;;7.85;2.08;;;;;;;;;;524535;28;2321;-61
2022/11/03 01:29:06;;;;;;;9.57;2.30;;;;;;;;;;526795;27;2187;-61
2022/11/03 01:29:22;;;;;;;8.60;2.30;;;;;;;;;;524048;28;2075;-61
2022/11/03 01:29:37;;;;;;;9.33;2.30;;;;;;;;;;521690;28;1294;-60
2022/11/03 01:29:52;;;;;;;10.60;2.35;;;;;;;;;;523464;28;2046;-61
2022/11/03 01:30:08;;;;;;;9.13;2.33;;;;;;;;;;524075;28;2321;-62
2022/11/03 01:30:24;;;;;;;9.30;2.13;;;;;;;;;;522396;28;2105;-61
2022/11/03 01:30:39;;;;;;;11.77;2.27;;;;;;;;;;520641;28;1117;-61
2022/11/03 01:30:54;;;;;;;10.90;2.30;;;;;;;;;;520584;28;1428;-61
2022/11/03 01:31:16;;;;;;;9.40;2.00;;;;;;;;;;521490;28;2030;-62
2022/11/03 01:31:31;;;;;;;10.98;2.20;;;;;;;;;;521897;28;1721;-61
2022/11/03 01:31:47;;;;;;;8.25;2.20;;;;;;;;;;521656;28;2096;-61
2022/11/03 01:32:03;;;;;;;8.23;2.30;;;;;;;;;;523294;28;2138;-61
2022/11/03 01:32:18;;;;;;;11.32;2.50;;;;;;;;;;523313;28;1201;-61
2022/11/03 01:32:34;;;;;;;10.67;2.30;;;;;;;;;;522397;28;2361;-61
2022/11/03 01:32:49;;;;;;;9.93;2.23;;;;;;;;;;520619;28;2084;-61
2022/11/03 01:33:04;;;;;;;11.00;2.33;;;;;;;;;;524099;28;2171;-61
2022/11/03 01:33:19;;;;;;;11.93;2.33;;;;;;;;;;525930;27;2124;-61
2022/11/03 01:33:35;;;;;;;10.47;2.07;;;;;;;;;;525153;27;1306;-61
2022/11/03 01:33:52;;;;;;;10.17;2.10;;;;;;;;;;525288;27;2035;-61
2022/11/03 01:34:12;;;;;;;11.32;2.53;;;;;;;;;;524118;28;2031;-61
2022/11/03 01:34:28;;;;;;;9.55;2.40;;;;;;;;;;522957;28;2115;-61
2022/11/03 01:34:44;;;;;;;9.25;2.20;;;;;;;;;;520626;28;2086;-61
2022/11/03 01:34:59;;;;;;;9.07;2.00;;;;;;;;;;522768;28;1202;-62
2022/11/03 01:35:14;;;;;;;7.57;1.90;;;;;;;;;;521165;28;2446;-62
2022/11/03 01:35:29;;;;;;;6.93;2.00;;;;;;;;;;522527;28;2312;-61
2022/11/03 01:35:45;;;;;;;9.43;2.37;;;;;;;;;;522744;28;2075;-61
2022/11/03 01:36:00;;;;;;;10.27;2.20;;;;;;;;;;520028;28;2077;-61
2022/11/03 01:36:16;;;;;;;9.60;2.03;;;;;;;;;;521796;28;1198;-61
2022/11/03 01:36:32;;;;;;;9.88;2.22;;;;;;;;;;521277;28;2331;-61
2022/11/03 01:36:48;;;;;;;9.10;2.25;;;;;;;;;;523416;28;2033;-61
2022/11/03 01:37:03;;;;;;;9.25;2.22;;;;;;;;;;520351;28;2014;-64
2022/11/03 01:37:18;;;;;;;9.70;2.27;;;;;;;;;;521420;28;1444;-61
2022/11/03 01:37:34;;;;;;;9.13;2.10;;;;;;;;;;521227;28;2398;-62
2022/11/03 01:37:50;;;;;;;9.40;2.00;;;;;;;;;;521183;28;2133;-61
2022/11/03 01:38:05;;;;;;;9.43;2.10;;;;;;;;;;522724;28;2277;-61
2022/11/03 01:38:20;;;;;;;8.97;2.13;;;;;;;;;;525624;28;2117;-61
2022/11/03 01:38:36;;;;;;;9.20;2.00;;;;;;;;;;524554;27;1172;-61
2022/11/03 01:38:53;;;;;;;8.52;2.00;;;;;;;;;;526487;27;2212;-61
2022/11/03 01:39:13;;;;;;;9.63;2.10;;;;;;;;;;523088;28;1990;-62
2022/11/03 01:39:29;;;;;;;9.43;2.00;;;;;;;;;;525589;27;2430;-61
2022/11/03 01:39:44;;;;;;;9.07;2.03;;;;;;;;;;526799;27;2045;-61
2022/11/03 01:39:59;;;;;;;8.50;2.17;;;;;;;;;;523270;28;1708;-61
2022/11/03 01:40:14;;;;;;;7.90;2.20;;;;;;;;;;522359;28;1054;-61
2022/11/03 01:40:31;;;;;;;8.63;2.15;;;;;;;;;;523198;28;2353;-61
2022/11/03 01:40:46;;;;;;;9.50;2.10;;;;;;;;;;523466;28;2195;-61
2022/11/03 01:41:03;;;;;;;9.90;2.10;;;;;;;;;;524016;28;2156;-61
2022/11/03 01:41:22;;;;;;;12.10;2.15;;;;;;;;;;522913;28;1061;-61
2022/11/03 01:41:37;;;;;;;12.20;2.38;;;;;;;;;;523202;28;1122;-61
2022/11/03 01:41:53;;;;;;;9.32;2.42;;;;;;;;;;523766;28;2362;-61
2022/11/03 01:42:11;;;;;;;8.57;2.23;;;;;;;;;;520808;28;2115;-61
2022/11/03 01:42:26;;;;;;;10.20;2.17;;;;;;;;;;523302;28;1710;-62
2022/11/03 01:42:41;;;;;;;10.77;2.10;;;;;;;;;;524113;28;2053;-61
2022/11/03 01:43:16;;;;;;;9.67;2.07;;;;;;;;;;522485;28;1186;-61
2022/11/03 01:43:32;;;;;;;11.77;2.20;;;;;;;;;;523301;28;2391;-61
2022/11/03 01:44:11;;;;;;;10.87;2.20;;;;;;;;;;523539;28;2115;-62
2022/11/03 01:44:40;;;;;;;8.20;2.05;;;;;;;;;;517000;28;2120;-61
2022/11/03 01:44:56;;;;;;;9.60;2.25;;;;;;;;;;522527;28;1226;-62